sensor_id;sensor_type;location;lat;lon;timestamp;temperature;humidity
4505;DHT22;2265;48.794;9.520;2023-04-21T00:00:36;6.30;98.00
4505;DHT22;2265;48.794;9.520;2023-04-21T00:03:05;6.30;98.00
4505;DHT22;2265;48.794;9.520;2023-04-21T00:05:35;6.40;98.00
4505;DHT22;2265;48.794;9.520;2023-04-21T00:08:07;6.40;98.00
4505;DHT22;2265;48.794;9.520;2023-04-21T00:10:34;6.30;98.00
4505;DHT22;2265;48.794;9.520;2023-04-21T00:13:01;6.30;98.00
4505;DHT22;2265;48.794;9.520;2023-04-21T00:15:28;6.30;98.00
4505;DHT22;2265;48.794;9.520;2023-04-21T00:17:55;6.30;98.00
4505;DHT22;2265;48.794;9.520;2023-04-21T00:20:23;6.30;98.00
4505;DHT22;2265;48.794;9.520;2023-04-21T00:22:52;6.30;98.00
4505;DHT22;2265;48.794;9.520;2023-04-21T00:25:20;6.40;98.00
4505;DHT22;2265;48.794;9.520;2023-04-21T00:27:47;6.30;98.00
4505;DHT22;2265;48.794;9.520;2023-04-21T00:30:14;6.40;98.00
4505;DHT22;2265;48.794;9.520;2023-04-21T00:32:41;6.50;98.00
4505;DHT22;2265;48.794;9.520;2023-04-21T00:35:09;6.60;98.00
4505;DHT22;2265;48.794;9.520;2023-04-21T00:37:36;6.60;98.00
4505;DHT22;2265;48.794;9.520;2023-04-21T00:40:07;6.60;98.00
4505;DHT22;2265;48.794;9.520;2023-04-21T00:42:35;6.60;98.00
4505;DHT22;2265;48.794;9.520;2023-04-21T00:45:02;6.50;98.00
4505;DHT22;2265;48.794;9.520;2023-04-21T00:47:31;6.40;98.00
4505;DHT22;2265;48.794;9.520;2023-04-21T00:49:58;6.40;98.00
4505;DHT22;2265;48.794;9.520;2023-04-21T00:52:26;6.40;98.00
4505;DHT22;2265;48.794;9.520;2023-04-21T00:54:54;6.60;98.00
4505;DHT22;2265;48.794;9.520;2023-04-21T00:57:23;6.70;98.00
4505;DHT22;2265;48.794;9.520;2023-04-21T00:59:50;6.70;98.00
4505;DHT22;2265;48.794;9.520;2023-04-21T01:02:18;6.60;98.00
4505;DHT22;2265;48.794;9.520;2023-04-21T01:04:45;6.60;98.00
4505;DHT22;2265;48.794;9.520;2023-04-21T01:07:12;6.40;98.00
4505;DHT22;2265;48.794;9.520;2023-04-21T01:09:41;6.30;98.00
4505;DHT22;2265;48.794;9.520;2023-04-21T01:12:09;6.30;98.00
4505;DHT22;2265;48.794;9.520;2023-04-21T01:14:39;6.40;98.00
4505;DHT22;2265;48.794;9.520;2023-04-21T01:17:06;6.50;98.00
4505;DHT22;2265;48.794;9.520;2023-04-21T01:19:36;6.60;98.00
4505;DHT22;2265;48.794;9.520;2023-04-21T01:22:05;6.70;98.00
4505;DHT22;2265;48.794;9.520;2023-04-21T01:24:37;6.50;98.00
4505;DHT22;2265;48.794;9.520;2023-04-21T01:27:10;6.30;98.00
4505;DHT22;2265;48.794;9.520;2023-04-21T01:29:42;6.20;98.00
4505;DHT22;2265;48.794;9.520;2023-04-21T01:32:12;6.30;98.00
4505;DHT22;2265;48.794;9.520;2023-04-21T01:34:40;6.30;98.00
4505;DHT22;2265;48.794;9.520;2023-04-21T01:37:10;6.30;98.00
4505;DHT22;2265;48.794;9.520;2023-04-21T01:39:37;6.40;98.00
4505;DHT22;2265;48.794;9.520;2023-04-21T01:42:05;6.30;98.00
4505;DHT22;2265;48.794;9.520;2023-04-21T01:44:33;6.20;98.00
4505;DHT22;2265;48.794;9.520;2023-04-21T01:47:02;6.10;98.00
4505;DHT22;2265;48.794;9.520;2023-04-21T01:49:29;6.00;98.00
4505;DHT22;2265;48.794;9.520;2023-04-21T01:51:58;6.00;98.00
4505;DHT22;2265;48.794;9.520;2023-04-21T01:54:29;6.10;98.00
4505;DHT22;2265;48.794;9.520;2023-04-21T01:56:56;6.00;98.00
4505;DHT22;2265;48.794;9.520;2023-04-21T01:59:23;6.20;98.00
4505;DHT22;2265;48.794;9.520;2023-04-21T02:01:50;6.10;98.00
4505;DHT22;2265;48.794;9.520;2023-04-21T02:04:18;6.10;98.00
4505;DHT22;2265;48.794;9.520;2023-04-21T02:06:45;6.10;98.00
4505;DHT22;2265;48.794;9.520;2023-04-21T02:09:12;6.00;98.00
4505;DHT22;2265;48.794;9.520;2023-04-21T02:11:40;5.80;98.00
4505;DHT22;2265;48.794;9.520;2023-04-21T02:14:07;5.70;98.00
4505;DHT22;2265;48.794;9.520;2023-04-21T02:16:34;5.80;98.00
4505;DHT22;2265;48.794;9.520;2023-04-21T02:19:01;5.90;98.00
4505;DHT22;2265;48.794;9.520;2023-04-21T02:21:28;5.90;98.00
4505;DHT22;2265;48.794;9.520;2023-04-21T02:23:56;5.90;98.00
4505;DHT22;2265;48.794;9.520;2023-04-21T02:26:24;5.90;98.00
4505;DHT22;2265;48.794;9.520;2023-04-21T02:28:52;5.90;98.00
4505;DHT22;2265;48.794;9.520;2023-04-21T02:31:19;5.80;98.00
4505;DHT22;2265;48.794;9.520;2023-04-21T02:33:49;5.90;98.00
4505;DHT22;2265;48.794;9.520;2023-04-21T02:36:16;5.80;98.00
4505;DHT22;2265;48.794;9.520;2023-04-21T02:38:43;5.90;98.00
4505;DHT22;2265;48.794;9.520;2023-04-21T02:41:10;5.90;98.00
4505;DHT22;2265;48.794;9.520;2023-04-21T02:43:38;5.90;98.00
4505;DHT22;2265;48.794;9.520;2023-04-21T02:46:07;5.90;98.00
4505;DHT22;2265;48.794;9.520;2023-04-21T02:48:35;5.90;98.00
4505;DHT22;2265;48.794;9.520;2023-04-21T02:51:02;5.90;98.00
4505;DHT22;2265;48.794;9.520;2023-04-21T02:53:30;5.90;98.00
4505;DHT22;2265;48.794;9.520;2023-04-21T02:55:57;5.80;98.00
4505;DHT22;2265;48.794;9.520;2023-04-21T02:58:26;5.90;98.00
4505;DHT22;2265;48.794;9.520;2023-04-21T03:00:53;5.90;98.00
4505;DHT22;2265;48.794;9.520;2023-04-21T03:03:23;5.80;98.00
4505;DHT22;2265;48.794;9.520;2023-04-21T03:05:55;5.70;98.00
4505;DHT22;2265;48.794;9.520;2023-04-21T03:08:22;5.70;98.00
4505;DHT22;2265;48.794;9.520;2023-04-21T03:10:50;5.80;98.00
4505;DHT22;2265;48.794;9.520;2023-04-21T03:13:17;5.70;98.00
4505;DHT22;2265;48.794;9.520;2023-04-21T03:15:46;5.50;98.00
4505;DHT22;2265;48.794;9.520;2023-04-21T03:18:13;5.50;98.00
4505;DHT22;2265;48.794;9.520;2023-04-21T03:20:42;5.50;98.00
4505;DHT22;2265;48.794;9.520;2023-04-21T03:23:09;5.40;98.00
4505;DHT22;2265;48.794;9.520;2023-04-21T03:25:37;5.40;98.00
4505;DHT22;2265;48.794;9.520;2023-04-21T03:28:04;5.40;98.00
4505;DHT22;2265;48.794;9.520;2023-04-21T03:30:34;5.40;98.00
4505;DHT22;2265;48.794;9.520;2023-04-21T03:33:02;5.50;98.00
4505;DHT22;2265;48.794;9.520;2023-04-21T03:35:29;5.40;98.00
4505;DHT22;2265;48.794;9.520;2023-04-21T03:37:58;5.40;98.00
4505;DHT22;2265;48.794;9.520;2023-04-21T03:40:25;5.50;98.00
4505;DHT22;2265;48.794;9.520;2023-04-21T03:42:52;5.40;98.00
4505;DHT22;2265;48.794;9.520;2023-04-21T03:45:19;5.40;98.00
4505;DHT22;2265;48.794;9.520;2023-04-21T03:47:47;5.50;98.00
4505;DHT22;2265;48.794;9.520;2023-04-21T03:50:14;5.50;98.00
4505;DHT22;2265;48.794;9.520;2023-04-21T03:52:42;5.50;98.00
4505;DHT22;2265;48.794;9.520;2023-04-21T03:55:10;5.50;98.00
4505;DHT22;2265;48.794;9.520;2023-04-21T03:57:38;5.50;98.00
4505;DHT22;2265;48.794;9.520;2023-04-21T04:00:08;5.50;98.00
4505;DHT22;2265;48.794;9.520;2023-04-21T04:02:36;5.60;98.00
4505;DHT22;2265;48.794;9.520;2023-04-21T04:05:03;5.60;98.00
4505;DHT22;2265;48.794;9.520;2023-04-21T04:07:31;5.60;98.00
4505;DHT22;2265;48.794;9.520;2023-04-21T04:09:59;5.60;98.00
4505;DHT22;2265;48.794;9.520;2023-04-21T04:12:27;5.70;98.00
4505;DHT22;2265;48.794;9.520;2023-04-21T04:14:54;5.70;98.00
4505;DHT22;2265;48.794;9.520;2023-04-21T04:17:21;5.80;98.00
4505;DHT22;2265;48.794;9.520;2023-04-21T04:19:48;5.70;98.00
4505;DHT22;2265;48.794;9.520;2023-04-21T04:22:15;5.70;98.00
4505;DHT22;2265;48.794;9.520;2023-04-21T04:24:42;5.70;98.00
4505;DHT22;2265;48.794;9.520;2023-04-21T04:27:10;5.70;98.00
4505;DHT22;2265;48.794;9.520;2023-04-21T04:29:41;5.50;98.00
4505;DHT22;2265;48.794;9.520;2023-04-21T04:32:08;5.40;98.00
4505;DHT22;2265;48.794;9.520;2023-04-21T04:34:36;5.40;98.00
4505;DHT22;2265;48.794;9.520;2023-04-21T04:37:03;5.50;98.00
4505;DHT22;2265;48.794;9.520;2023-04-21T04:39:31;5.50;98.00
4505;DHT22;2265;48.794;9.520;2023-04-21T04:41:59;5.40;98.00
4505;DHT22;2265;48.794;9.520;2023-04-21T04:44:28;5.50;98.00
4505;DHT22;2265;48.794;9.520;2023-04-21T04:46:58;5.40;98.00
4505;DHT22;2265;48.794;9.520;2023-04-21T04:49:26;5.60;98.00
4505;DHT22;2265;48.794;9.520;2023-04-21T04:51:53;5.60;98.00
4505;DHT22;2265;48.794;9.520;2023-04-21T04:54:20;5.60;98.00
4505;DHT22;2265;48.794;9.520;2023-04-21T04:56:47;5.60;98.00
4505;DHT22;2265;48.794;9.520;2023-04-21T04:59:14;5.60;98.00
4505;DHT22;2265;48.794;9.520;2023-04-21T05:01:41;5.60;98.00
4505;DHT22;2265;48.794;9.520;2023-04-21T05:04:10;5.70;98.00
4505;DHT22;2265;48.794;9.520;2023-04-21T05:06:40;5.90;98.00
4505;DHT22;2265;48.794;9.520;2023-04-21T05:09:07;5.80;98.00
4505;DHT22;2265;48.794;9.520;2023-04-21T05:11:35;5.80;98.00
4505;DHT22;2265;48.794;9.520;2023-04-21T05:14:02;5.70;98.00
4505;DHT22;2265;48.794;9.520;2023-04-21T05:16:29;5.60;98.00
4505;DHT22;2265;48.794;9.520;2023-04-21T05:19:00;5.60;98.00
4505;DHT22;2265;48.794;9.520;2023-04-21T05:21:29;5.60;98.00
4505;DHT22;2265;48.794;9.520;2023-04-21T05:23:57;5.70;98.00
4505;DHT22;2265;48.794;9.520;2023-04-21T05:26:25;5.70;98.00
4505;DHT22;2265;48.794;9.520;2023-04-21T05:28:54;5.80;98.00
4505;DHT22;2265;48.794;9.520;2023-04-21T05:31:22;5.70;98.00
4505;DHT22;2265;48.794;9.520;2023-04-21T05:33:49;5.70;98.00
4505;DHT22;2265;48.794;9.520;2023-04-21T05:36:16;5.90;98.00
4505;DHT22;2265;48.794;9.520;2023-04-21T05:38:46;6.00;98.00
4505;DHT22;2265;48.794;9.520;2023-04-21T05:41:13;6.00;98.00
4505;DHT22;2265;48.794;9.520;2023-04-21T05:43:41;6.10;98.00
4505;DHT22;2265;48.794;9.520;2023-04-21T05:46:09;6.10;98.00
4505;DHT22;2265;48.794;9.520;2023-04-21T05:48:36;6.10;98.00
4505;DHT22;2265;48.794;9.520;2023-04-21T05:51:08;6.20;98.00
4505;DHT22;2265;48.794;9.520;2023-04-21T05:53:36;6.10;98.00
4505;DHT22;2265;48.794;9.520;2023-04-21T05:56:06;6.00;98.00
4505;DHT22;2265;48.794;9.520;2023-04-21T05:58:34;6.10;98.00
4505;DHT22;2265;48.794;9.520;2023-04-21T06:01:01;6.10;98.00
4505;DHT22;2265;48.794;9.520;2023-04-21T06:03:30;6.00;98.00
4505;DHT22;2265;48.794;9.520;2023-04-21T06:05:58;6.00;98.00
4505;DHT22;2265;48.794;9.520;2023-04-21T06:08:39;6.00;98.00
4505;DHT22;2265;48.794;9.520;2023-04-21T06:11:08;6.00;98.00
4505;DHT22;2265;48.794;9.520;2023-04-21T06:13:35;6.00;98.00
4505;DHT22;2265;48.794;9.520;2023-04-21T06:16:02;6.00;98.00
4505;DHT22;2265;48.794;9.520;2023-04-21T06:18:31;6.00;98.00
4505;DHT22;2265;48.794;9.520;2023-04-21T06:20:58;6.20;98.00
4505;DHT22;2265;48.794;9.520;2023-04-21T06:23:25;6.40;98.00
4505;DHT22;2265;48.794;9.520;2023-04-21T06:26:05;6.50;98.00
4505;DHT22;2265;48.794;9.520;2023-04-21T06:28:35;6.70;98.00
4505;DHT22;2265;48.794;9.520;2023-04-21T06:31:03;6.90;98.00
4505;DHT22;2265;48.794;9.520;2023-04-21T06:33:31;6.90;98.00
4505;DHT22;2265;48.794;9.520;2023-04-21T06:35:58;6.80;98.00
4505;DHT22;2265;48.794;9.520;2023-04-21T06:38:25;6.80;98.00
4505;DHT22;2265;48.794;9.520;2023-04-21T06:40:53;6.80;98.00
4505;DHT22;2265;48.794;9.520;2023-04-21T06:43:20;6.80;98.00
4505;DHT22;2265;48.794;9.520;2023-04-21T06:45:49;6.70;98.00
4505;DHT22;2265;48.794;9.520;2023-04-21T06:48:16;6.60;98.00
4505;DHT22;2265;48.794;9.520;2023-04-21T06:50:43;6.80;98.00
4505;DHT22;2265;48.794;9.520;2023-04-21T06:53:11;6.90;98.00
4505;DHT22;2265;48.794;9.520;2023-04-21T06:55:39;7.00;98.00
4505;DHT22;2265;48.794;9.520;2023-04-21T06:58:06;7.10;98.00
4505;DHT22;2265;48.794;9.520;2023-04-21T07:00:33;7.00;98.00
4505;DHT22;2265;48.794;9.520;2023-04-21T07:03:04;7.20;98.00
4505;DHT22;2265;48.794;9.520;2023-04-21T07:05:32;7.30;98.00
4505;DHT22;2265;48.794;9.520;2023-04-21T07:07:59;7.50;98.00
4505;DHT22;2265;48.794;9.520;2023-04-21T07:10:26;7.50;98.00
4505;DHT22;2265;48.794;9.520;2023-04-21T07:12:53;7.50;98.00
4505;DHT22;2265;48.794;9.520;2023-04-21T07:15:22;7.40;98.00
4505;DHT22;2265;48.794;9.520;2023-04-21T07:17:49;7.50;98.00
4505;DHT22;2265;48.794;9.520;2023-04-21T07:20:18;7.30;98.00
4505;DHT22;2265;48.794;9.520;2023-04-21T07:22:45;7.40;98.00
4505;DHT22;2265;48.794;9.520;2023-04-21T07:25:12;7.60;98.00
4505;DHT22;2265;48.794;9.520;2023-04-21T07:27:39;7.70;98.00
4505;DHT22;2265;48.794;9.520;2023-04-21T07:30:07;7.60;98.00
4505;DHT22;2265;48.794;9.520;2023-04-21T07:32:34;7.60;98.00
4505;DHT22;2265;48.794;9.520;2023-04-21T07:35:03;7.80;98.00
4505;DHT22;2265;48.794;9.520;2023-04-21T07:37:32;7.70;98.00
4505;DHT22;2265;48.794;9.520;2023-04-21T07:39:59;7.70;98.00
4505;DHT22;2265;48.794;9.520;2023-04-21T07:42:26;7.90;98.00
4505;DHT22;2265;48.794;9.520;2023-04-21T07:44:54;8.00;98.00
4505;DHT22;2265;48.794;9.520;2023-04-21T07:47:22;8.10;98.00
4505;DHT22;2265;48.794;9.520;2023-04-21T07:49:49;8.20;98.00
4505;DHT22;2265;48.794;9.520;2023-04-21T07:52:16;8.30;98.00
4505;DHT22;2265;48.794;9.520;2023-04-21T07:54:45;8.40;98.00
4505;DHT22;2265;48.794;9.520;2023-04-21T07:57:12;8.50;98.00
4505;DHT22;2265;48.794;9.520;2023-04-21T07:59:39;8.60;98.00
4505;DHT22;2265;48.794;9.520;2023-04-21T08:02:07;8.60;98.00
4505;DHT22;2265;48.794;9.520;2023-04-21T08:04:36;8.70;98.00
4505;DHT22;2265;48.794;9.520;2023-04-21T08:07:03;8.70;98.00
4505;DHT22;2265;48.794;9.520;2023-04-21T08:09:31;8.90;98.00
4505;DHT22;2265;48.794;9.520;2023-04-21T08:11:59;9.10;98.00
4505;DHT22;2265;48.794;9.520;2023-04-21T08:14:27;9.30;98.00
4505;DHT22;2265;48.794;9.520;2023-04-21T08:16:55;9.30;98.00
4505;DHT22;2265;48.794;9.520;2023-04-21T08:19:22;9.40;98.00
4505;DHT22;2265;48.794;9.520;2023-04-21T08:21:49;9.40;98.00
4505;DHT22;2265;48.794;9.520;2023-04-21T08:24:16;9.40;98.00
4505;DHT22;2265;48.794;9.520;2023-04-21T08:26:43;9.40;98.00
4505;DHT22;2265;48.794;9.520;2023-04-21T08:29:12;9.50;98.00
4505;DHT22;2265;48.794;9.520;2023-04-21T08:31:39;9.50;98.00
4505;DHT22;2265;48.794;9.520;2023-04-21T08:34:06;9.50;98.00
4505;DHT22;2265;48.794;9.520;2023-04-21T08:36:33;9.70;98.00
4505;DHT22;2265;48.794;9.520;2023-04-21T08:39:00;9.80;98.00
4505;DHT22;2265;48.794;9.520;2023-04-21T08:41:27;10.00;98.00
4505;DHT22;2265;48.794;9.520;2023-04-21T08:43:55;10.20;98.00
4505;DHT22;2265;48.794;9.520;2023-04-21T08:46:24;10.40;98.00
4505;DHT22;2265;48.794;9.520;2023-04-21T08:48:53;10.60;98.00
4505;DHT22;2265;48.794;9.520;2023-04-21T08:51:21;10.80;98.00
4505;DHT22;2265;48.794;9.520;2023-04-21T08:53:49;10.90;98.00
4505;DHT22;2265;48.794;9.520;2023-04-21T08:56:16;11.10;98.00
4505;DHT22;2265;48.794;9.520;2023-04-21T08:58:43;11.30;98.00
4505;DHT22;2265;48.794;9.520;2023-04-21T09:01:10;11.40;98.00
4505;DHT22;2265;48.794;9.520;2023-04-21T09:03:39;11.60;98.00
4505;DHT22;2265;48.794;9.520;2023-04-21T09:06:07;11.80;98.00
4505;DHT22;2265;48.794;9.520;2023-04-21T09:08:38;12.00;98.00
4505;DHT22;2265;48.794;9.520;2023-04-21T09:11:07;12.30;98.00
4505;DHT22;2265;48.794;9.520;2023-04-21T09:13:39;12.50;98.00
4505;DHT22;2265;48.794;9.520;2023-04-21T09:16:15;12.70;98.00
4505;DHT22;2265;48.794;9.520;2023-04-21T09:18:44;13.00;98.00
4505;DHT22;2265;48.794;9.520;2023-04-21T09:21:12;13.10;98.00
4505;DHT22;2265;48.794;9.520;2023-04-21T09:23:41;13.20;98.00
4505;DHT22;2265;48.794;9.520;2023-04-21T09:26:11;13.30;98.00
4505;DHT22;2265;48.794;9.520;2023-04-21T09:28:43;13.40;98.00
4505;DHT22;2265;48.794;9.520;2023-04-21T09:31:12;13.50;98.00
4505;DHT22;2265;48.794;9.520;2023-04-21T09:33:45;13.70;98.00
4505;DHT22;2265;48.794;9.520;2023-04-21T09:36:19;13.80;98.00
4505;DHT22;2265;48.794;9.520;2023-04-21T09:38:49;13.90;98.00
4505;DHT22;2265;48.794;9.520;2023-04-21T09:41:17;14.10;98.00
4505;DHT22;2265;48.794;9.520;2023-04-21T09:43:44;14.20;98.00
4505;DHT22;2265;48.794;9.520;2023-04-21T09:46:11;14.40;98.00
4505;DHT22;2265;48.794;9.520;2023-04-21T09:48:43;14.60;98.00
4505;DHT22;2265;48.794;9.520;2023-04-21T09:51:16;14.50;98.00
4505;DHT22;2265;48.794;9.520;2023-04-21T09:53:44;14.70;98.00
4505;DHT22;2265;48.794;9.520;2023-04-21T09:56:14;14.80;98.00
4505;DHT22;2265;48.794;9.520;2023-04-21T09:58:47;15.00;98.00
4505;DHT22;2265;48.794;9.520;2023-04-21T10:01:17;15.10;98.00
4505;DHT22;2265;48.794;9.520;2023-04-21T10:03:47;15.00;98.00
4505;DHT22;2265;48.794;9.520;2023-04-21T10:06:16;15.00;98.00
4505;DHT22;2265;48.794;9.520;2023-04-21T10:08:43;15.20;98.00
4505;DHT22;2265;48.794;9.520;2023-04-21T10:11:11;15.40;98.00
4505;DHT22;2265;48.794;9.520;2023-04-21T10:13:39;15.50;98.00
4505;DHT22;2265;48.794;9.520;2023-04-21T10:16:08;15.70;98.00
4505;DHT22;2265;48.794;9.520;2023-04-21T10:18:36;15.90;98.00
4505;DHT22;2265;48.794;9.520;2023-04-21T10:21:05;16.00;98.00
4505;DHT22;2265;48.794;9.520;2023-04-21T10:23:38;16.20;98.00
4505;DHT22;2265;48.794;9.520;2023-04-21T10:26:12;16.40;98.00
4505;DHT22;2265;48.794;9.520;2023-04-21T10:28:45;16.50;98.00
4505;DHT22;2265;48.794;9.520;2023-04-21T10:31:23;16.70;98.00
4505;DHT22;2265;48.794;9.520;2023-04-21T10:34:16;16.90;98.00
4505;DHT22;2265;48.794;9.520;2023-04-21T10:39:55;17.20;98.00
4505;DHT22;2265;48.794;9.520;2023-04-21T10:42:27;17.30;98.00
4505;DHT22;2265;48.794;9.520;2023-04-21T10:45:08;17.40;98.00
4505;DHT22;2265;48.794;9.520;2023-04-21T10:47:46;17.60;98.00
4505;DHT22;2265;48.794;9.520;2023-04-21T10:50:19;17.70;98.00
4505;DHT22;2265;48.794;9.520;2023-04-21T10:52:52;17.80;98.00
4505;DHT22;2265;48.794;9.520;2023-04-21T10:55:24;18.00;98.00
4505;DHT22;2265;48.794;9.520;2023-04-21T10:57:51;18.10;98.00
4505;DHT22;2265;48.794;9.520;2023-04-21T11:00:21;18.20;98.00
4505;DHT22;2265;48.794;9.520;2023-04-21T11:02:59;18.40;98.00
4505;DHT22;2265;48.794;9.520;2023-04-21T11:05:32;18.40;98.00
4505;DHT22;2265;48.794;9.520;2023-04-21T11:08:11;18.60;98.00
4505;DHT22;2265;48.794;9.520;2023-04-21T11:10:54;18.80;98.00
4505;DHT22;2265;48.794;9.520;2023-04-21T11:13:22;19.00;98.00
4505;DHT22;2265;48.794;9.520;2023-04-21T11:16:01;19.30;98.00
4505;DHT22;2265;48.794;9.520;2023-04-21T11:18:45;19.40;98.00
4505;DHT22;2265;48.794;9.520;2023-04-21T11:21:14;19.70;98.00
4505;DHT22;2265;48.794;9.520;2023-04-21T11:23:49;19.90;98.00
4505;DHT22;2265;48.794;9.520;2023-04-21T11:26:29;20.00;98.00
4505;DHT22;2265;48.794;9.520;2023-04-21T11:28:59;20.10;98.00
4505;DHT22;2265;48.794;9.520;2023-04-21T11:31:27;20.30;98.00
4505;DHT22;2265;48.794;9.520;2023-04-21T11:33:55;20.40;98.00
4505;DHT22;2265;48.794;9.520;2023-04-21T11:36:22;20.40;98.00
4505;DHT22;2265;48.794;9.520;2023-04-21T11:38:49;20.60;98.00
4505;DHT22;2265;48.794;9.520;2023-04-21T11:41:21;20.90;98.00
4505;DHT22;2265;48.794;9.520;2023-04-21T11:43:49;21.20;98.00
4505;DHT22;2265;48.794;9.520;2023-04-21T11:46:17;21.50;98.00
4505;DHT22;2265;48.794;9.520;2023-04-21T11:48:45;21.60;98.00
4505;DHT22;2265;48.794;9.520;2023-04-21T11:51:16;21.70;98.00
4505;DHT22;2265;48.794;9.520;2023-04-21T11:53:46;21.90;98.00
4505;DHT22;2265;48.794;9.520;2023-04-21T11:56:17;21.90;98.00
4505;DHT22;2265;48.794;9.520;2023-04-21T11:58:49;22.10;98.00
4505;DHT22;2265;48.794;9.520;2023-04-21T12:01:18;22.10;98.00
4505;DHT22;2265;48.794;9.520;2023-04-21T12:03:54;22.20;98.00
4505;DHT22;2265;48.794;9.520;2023-04-21T12:08:54;22.40;97.70
4505;DHT22;2265;48.794;9.520;2023-04-21T12:11:23;22.50;97.60
4505;DHT22;2265;48.794;9.520;2023-04-21T12:13:52;22.50;96.50
4505;DHT22;2265;48.794;9.520;2023-04-21T12:16:19;22.70;97.10
4505;DHT22;2265;48.794;9.520;2023-04-21T12:18:47;22.80;96.50
4505;DHT22;2265;48.794;9.520;2023-04-21T12:21:14;23.10;96.00
4505;DHT22;2265;48.794;9.520;2023-04-21T12:23:42;23.20;96.60
4505;DHT22;2265;48.794;9.520;2023-04-21T12:26:10;23.50;95.70
4505;DHT22;2265;48.794;9.520;2023-04-21T12:28:38;23.60;95.80
4505;DHT22;2265;48.794;9.520;2023-04-21T12:31:06;23.60;94.20
4505;DHT22;2265;48.794;9.520;2023-04-21T12:33:33;23.80;95.30
4505;DHT22;2265;48.794;9.520;2023-04-21T12:36:01;24.00;94.90
4505;DHT22;2265;48.794;9.520;2023-04-21T12:38:28;24.10;93.30
4505;DHT22;2265;48.794;9.520;2023-04-21T12:40:55;23.90;92.90
4505;DHT22;2265;48.794;9.520;2023-04-21T12:43:22;23.70;93.40
4505;DHT22;2265;48.794;9.520;2023-04-21T12:45:49;23.50;93.30
4505;DHT22;2265;48.794;9.520;2023-04-21T12:48:18;23.20;95.00
4505;DHT22;2265;48.794;9.520;2023-04-21T12:50:45;22.70;95.10
4505;DHT22;2265;48.794;9.520;2023-04-21T12:53:13;22.50;96.10
4505;DHT22;2265;48.794;9.520;2023-04-21T12:55:40;22.90;94.90
4505;DHT22;2265;48.794;9.520;2023-04-21T12:58:07;23.30;93.30
4505;DHT22;2265;48.794;9.520;2023-04-21T13:00:37;23.70;91.80
4505;DHT22;2265;48.794;9.520;2023-04-21T13:03:04;23.90;92.00
4505;DHT22;2265;48.794;9.520;2023-04-21T13:05:33;24.20;91.10
4505;DHT22;2265;48.794;9.520;2023-04-21T13:08:00;24.30;88.90
4505;DHT22;2265;48.794;9.520;2023-04-21T13:10:30;24.50;89.90
4505;DHT22;2265;48.794;9.520;2023-04-21T13:12:57;24.60;90.30
4505;DHT22;2265;48.794;9.520;2023-04-21T13:15:24;24.80;89.80
4505;DHT22;2265;48.794;9.520;2023-04-21T13:17:51;25.00;89.50
4505;DHT22;2265;48.794;9.520;2023-04-21T13:20:19;25.10;88.10
4505;DHT22;2265;48.794;9.520;2023-04-21T13:22:48;25.10;88.80
4505;DHT22;2265;48.794;9.520;2023-04-21T13:25:15;25.10;89.10
4505;DHT22;2265;48.794;9.520;2023-04-21T13:27:42;25.20;89.40
4505;DHT22;2265;48.794;9.520;2023-04-21T13:30:12;25.50;89.40
4505;DHT22;2265;48.794;9.520;2023-04-21T13:32:40;25.60;87.40
4505;DHT22;2265;48.794;9.520;2023-04-21T13:35:09;25.70;87.60
4505;DHT22;2265;48.794;9.520;2023-04-21T13:37:37;25.90;86.30
4505;DHT22;2265;48.794;9.520;2023-04-21T13:40:09;25.70;85.10
4505;DHT22;2265;48.794;9.520;2023-04-21T13:42:36;25.70;84.90
4505;DHT22;2265;48.794;9.520;2023-04-21T13:45:05;25.80;86.20
4505;DHT22;2265;48.794;9.520;2023-04-21T13:47:33;25.90;83.00
4505;DHT22;2265;48.794;9.520;2023-04-21T13:50:00;26.00;85.30
4505;DHT22;2265;48.794;9.520;2023-04-21T13:52:27;26.30;85.90
4505;DHT22;2265;48.794;9.520;2023-04-21T13:54:55;26.40;82.70
4505;DHT22;2265;48.794;9.520;2023-04-21T13:57:23;26.40;82.10
4505;DHT22;2265;48.794;9.520;2023-04-21T13:59:51;26.10;82.20
4505;DHT22;2265;48.794;9.520;2023-04-21T14:02:18;26.20;84.50
4505;DHT22;2265;48.794;9.520;2023-04-21T14:04:48;26.30;82.30
4505;DHT22;2265;48.794;9.520;2023-04-21T14:07:15;26.40;81.60
4505;DHT22;2265;48.794;9.520;2023-04-21T14:09:44;26.40;81.40
4505;DHT22;2265;48.794;9.520;2023-04-21T14:12:11;26.60;82.00
4505;DHT22;2265;48.794;9.520;2023-04-21T14:14:42;26.80;80.70
4505;DHT22;2265;48.794;9.520;2023-04-21T14:17:10;27.10;80.80
4505;DHT22;2265;48.794;9.520;2023-04-21T14:19:37;27.20;78.40
4505;DHT22;2265;48.794;9.520;2023-04-21T14:22:04;27.20;79.50
4505;DHT22;2265;48.794;9.520;2023-04-21T14:24:33;27.40;79.70
4505;DHT22;2265;48.794;9.520;2023-04-21T14:27:00;27.30;77.80
4505;DHT22;2265;48.794;9.520;2023-04-21T14:29:27;27.30;79.80
4505;DHT22;2265;48.794;9.520;2023-04-21T14:31:56;27.20;77.80
4505;DHT22;2265;48.794;9.520;2023-04-21T14:34:24;27.30;78.30
4505;DHT22;2265;48.794;9.520;2023-04-21T14:36:51;27.50;78.70
4505;DHT22;2265;48.794;9.520;2023-04-21T14:39:19;27.60;78.70
4505;DHT22;2265;48.794;9.520;2023-04-21T14:41:46;27.70;78.10
4505;DHT22;2265;48.794;9.520;2023-04-21T14:44:13;27.40;77.60
4505;DHT22;2265;48.794;9.520;2023-04-21T14:46:40;27.30;78.30
4505;DHT22;2265;48.794;9.520;2023-04-21T14:49:09;27.20;76.30
4505;DHT22;2265;48.794;9.520;2023-04-21T14:51:37;27.30;77.10
4505;DHT22;2265;48.794;9.520;2023-04-21T14:54:06;27.10;78.10
4505;DHT22;2265;48.794;9.520;2023-04-21T14:56:37;27.30;78.20
4505;DHT22;2265;48.794;9.520;2023-04-21T14:59:04;27.20;74.90
4505;DHT22;2265;48.794;9.520;2023-04-21T15:01:31;27.40;75.50
4505;DHT22;2265;48.794;9.520;2023-04-21T15:03:58;27.00;76.00
4505;DHT22;2265;48.794;9.520;2023-04-21T15:06:27;27.00;77.40
4505;DHT22;2265;48.794;9.520;2023-04-21T15:08:54;27.00;78.70
4505;DHT22;2265;48.794;9.520;2023-04-21T15:11:21;27.10;78.20
4505;DHT22;2265;48.794;9.520;2023-04-21T15:13:50;27.20;76.10
4505;DHT22;2265;48.794;9.520;2023-04-21T15:16:17;27.20;76.40
4505;DHT22;2265;48.794;9.520;2023-04-21T15:18:44;27.30;76.10
4505;DHT22;2265;48.794;9.520;2023-04-21T15:21:11;27.30;75.80
4505;DHT22;2265;48.794;9.520;2023-04-21T15:23:40;27.30;76.50
4505;DHT22;2265;48.794;9.520;2023-04-21T15:26:07;27.10;78.30
4505;DHT22;2265;48.794;9.520;2023-04-21T15:28:35;26.70;78.60
4505;DHT22;2265;48.794;9.520;2023-04-21T15:31:04;26.50;78.80
4505;DHT22;2265;48.794;9.520;2023-04-21T15:33:31;26.30;79.10
4505;DHT22;2265;48.794;9.520;2023-04-21T15:35:58;26.00;80.50
4505;DHT22;2265;48.794;9.520;2023-04-21T15:38:26;26.00;80.50
4505;DHT22;2265;48.794;9.520;2023-04-21T15:40:54;25.80;80.70
4505;DHT22;2265;48.794;9.520;2023-04-21T15:43:21;25.40;80.30
4505;DHT22;2265;48.794;9.520;2023-04-21T15:45:48;24.80;80.90
4505;DHT22;2265;48.794;9.520;2023-04-21T15:48:15;24.50;82.60
4505;DHT22;2265;48.794;9.520;2023-04-21T15:50:44;24.50;83.80
4505;DHT22;2265;48.794;9.520;2023-04-21T15:53:12;24.70;83.20
4505;DHT22;2265;48.794;9.520;2023-04-21T15:55:39;24.40;82.50
4505;DHT22;2265;48.794;9.520;2023-04-21T15:58:07;23.90;82.40
4505;DHT22;2265;48.794;9.520;2023-04-21T16:00:38;23.40;85.00
4505;DHT22;2265;48.794;9.520;2023-04-21T16:03:06;23.00;85.20
4505;DHT22;2265;48.794;9.520;2023-04-21T16:05:33;22.70;86.30
4505;DHT22;2265;48.794;9.520;2023-04-21T16:08:00;22.40;87.60
4505;DHT22;2265;48.794;9.520;2023-04-21T16:10:27;22.00;87.70
4505;DHT22;2265;48.794;9.520;2023-04-21T16:12:55;21.80;88.80
4505;DHT22;2265;48.794;9.520;2023-04-21T16:15:26;21.60;90.70
4505;DHT22;2265;48.794;9.520;2023-04-21T16:17:53;21.40;90.30
4505;DHT22;2265;48.794;9.520;2023-04-21T16:20:21;21.30;90.30
4505;DHT22;2265;48.794;9.520;2023-04-21T16:22:48;21.40;90.70